Time;durP1;ratioP1;P1;durP2;ratioP2;P2;SDS_P1;SDS_P2;PMS_P1;PMS_P2;Temp;Humidity;BMP_temperature;BMP_pressure;BME280_temperature;BME280_humidity;BME280_pressure;Samples;Min_cycle;Max_cycle;Signal;HPM_P1;HPM_P2
2023/06/02 00:01:53;;;;;;;6.38;3.25;;;;;;;;;;5008469;28;20037;-68
2023/06/02 00:04:23;;;;;;;5.97;3.05;;;;;;;;;;5013201;28;20057;-68
2023/06/02 00:06:50;;;;;;;4.82;2.95;;;;;;;;;;5026368;28;20687;-67
2023/06/02 00:09:15;;;;;;;5.20;3.20;;;;;;;;;;5029246;28;20052;-68
2023/06/02 00:11:41;;;;;;;6.32;2.70;;;;;;;;;;5016444;28;20041;-67
2023/06/02 00:14:07;;;;;;;5.70;2.17;;;;;;;;;;5006630;28;20040;-68
2023/06/02 00:16:41;;;;;;;3.65;2.92;;;;;;;;;;5017426;28;20045;-67
2023/06/02 00:19:07;;;;;;;6.60;3.10;;;;;;;;;;5027679;28;20490;-67
2023/06/02 00:21:33;;;;;;;5.68;3.13;;;;;;;;;;5021735;28;20493;-68
2023/06/02 00:23:58;;;;;;;5.57;2.63;;;;;;;;;;5004916;28;20092;-66
2023/06/02 00:26:25;;;;;;;9.32;4.00;;;;;;;;;;5007407;28;20065;-67
2023/06/02 00:28:51;;;;;;;6.85;3.28;;;;;;;;;;5006823;28;20052;-67
2023/06/02 00:31:17;;;;;;;4.55;2.92;;;;;;;;;;4975519;28;20051;-66
2023/06/02 00:33:43;;;;;;;9.25;3.03;;;;;;;;;;5024517;28;20041;-66
2023/06/02 00:36:08;;;;;;;3.97;2.55;;;;;;;;;;5016081;28;20033;-68
2023/06/02 00:38:34;;;;;;;4.78;3.05;;;;;;;;;;5015727;28;20047;-67
2023/06/02 00:40:59;;;;;;;6.72;3.25;;;;;;;;;;5009441;28;20037;-67
2023/06/02 00:43:25;;;;;;;6.15;2.60;;;;;;;;;;5021920;28;20056;-68
2023/06/02 00:45:50;;;;;;;6.10;3.33;;;;;;;;;;5026381;28;20084;-65
2023/06/02 00:48:16;;;;;;;5.22;2.97;;;;;;;;;;5026198;28;20129;-65
2023/06/02 00:50:42;;;;;;;6.68;3.40;;;;;;;;;;5025712;28;20079;-67
2023/06/02 00:53:10;;;;;;;5.60;3.10;;;;;;;;;;5013362;28;20048;-68
2023/06/02 00:55:35;;;;;;;5.97;3.45;;;;;;;;;;5029760;28;20071;-65
2023/06/02 00:58:03;;;;;;;5.95;3.47;;;;;;;;;;5013668;28;20112;-67
2023/06/02 01:00:33;;;;;;;8.77;3.78;;;;;;;;;;5026035;28;20695;-67
2023/06/02 01:02:59;;;;;;;7.40;4.15;;;;;;;;;;5019235;28;20136;-67
2023/06/02 01:05:25;;;;;;;7.65;3.60;;;;;;;;;;5010032;28;20037;-66
2023/06/02 01:07:58;;;;;;;6.95;3.50;;;;;;;;;;5014812;28;20611;-68
2023/06/02 01:10:24;;;;;;;6.45;3.83;;;;;;;;;;5013655;28;20083;-66
2023/06/02 01:12:50;;;;;;;5.45;3.30;;;;;;;;;;5025321;28;20055;-67
2023/06/02 01:15:16;;;;;;;6.70;3.83;;;;;;;;;;5028970;28;20040;-67
2023/06/02 01:17:45;;;;;;;6.65;3.72;;;;;;;;;;5010193;28;20506;-67
2023/06/02 01:20:12;;;;;;;6.47;3.90;;;;;;;;;;5013331;28;20105;-66
2023/06/02 01:22:56;;;;;;;6.40;4.10;;;;;;;;;;5007062;28;20132;-67
2023/06/02 01:25:27;;;;;;;5.30;3.38;;;;;;;;;;4971819;28;20088;-65
2023/06/02 01:27:53;;;;;;;4.30;3.43;;;;;;;;;;5018537;28;20075;-66
2023/06/02 01:30:18;;;;;;;9.68;4.80;;;;;;;;;;5010108;28;20297;-66
2023/06/02 01:32:53;;;;;;;9.48;3.70;;;;;;;;;;5025599;28;20037;-67
2023/06/02 01:35:21;;;;;;;4.88;3.50;;;;;;;;;;5025787;28;20557;-67
2023/06/02 01:37:54;;;;;;;8.63;3.80;;;;;;;;;;4999504;28;20186;-65
2023/06/02 01:40:22;;;;;;;5.60;3.75;;;;;;;;;;5017100;28;20052;-68
2023/06/02 01:42:48;;;;;;;11.20;4.40;;;;;;;;;;5015518;28;20051;-68
2023/06/02 01:45:14;;;;;;;9.10;4.22;;;;;;;;;;5025623;28;20120;-67
2023/06/02 01:47:40;;;;;;;7.80;3.95;;;;;;;;;;5024130;28;20183;-68
2023/06/02 01:50:06;;;;;;;7.60;3.65;;;;;;;;;;5014909;28;20123;-67
2023/06/02 01:52:32;;;;;;;5.15;3.70;;;;;;;;;;5015070;28;20098;-66
2023/06/02 01:54:57;;;;;;;11.68;4.22;;;;;;;;;;5025483;28;20131;-68
2023/06/02 01:57:23;;;;;;;7.80;4.10;;;;;;;;;;5013706;28;20157;-68
2023/06/02 01:59:48;;;;;;;6.20;3.83;;;;;;;;;;5009961;28;20037;-68
2023/06/02 02:02:13;;;;;;;8.32;5.00;;;;;;;;;;5014594;28;20041;-68
2023/06/02 02:04:40;;;;;;;7.55;3.92;;;;;;;;;;5005768;28;20064;-67
2023/06/02 02:07:08;;;;;;;5.90;3.63;;;;;;;;;;5024600;28;20033;-68
2023/06/02 02:09:34;;;;;;;8.48;3.90;;;;;;;;;;5024543;28;20463;-68
2023/06/02 02:12:00;;;;;;;8.80;3.20;;;;;;;;;;4978534;28;20098;-66
2023/06/02 02:14:26;;;;;;;6.32;3.35;;;;;;;;;;5008075;28;20047;-67
2023/06/02 02:16:52;;;;;;;5.40;3.20;;;;;;;;;;5003440;28;20075;-67
2023/06/02 02:19:18;;;;;;;7.13;3.50;;;;;;;;;;5024842;28;20095;-67
2023/06/02 02:21:44;;;;;;;6.30;2.90;;;;;;;;;;5025681;28;20048;-67
2023/06/02 02:24:09;;;;;;;6.07;3.22;;;;;;;;;;5008105;28;20046;-68
2023/06/02 02:26:35;;;;;;;5.65;3.10;;;;;;;;;;5023698;28;20033;-67
2023/06/02 02:29:01;;;;;;;5.07;3.30;;;;;;;;;;5004629;28;20034;-67
2023/06/02 02:31:27;;;;;;;8.13;2.90;;;;;;;;;;4995300;28;20551;-68
2023/06/02 02:33:53;;;;;;;7.70;3.38;;;;;;;;;;5029579;28;20040;-66
2023/06/02 02:36:18;;;;;;;5.75;3.15;;;;;;;;;;5010652;28;20037;-68
2023/06/02 02:38:44;;;;;;;5.72;2.97;;;;;;;;;;5011472;28;20094;-66
2023/06/02 02:41:09;;;;;;;8.60;3.65;;;;;;;;;;5005060;28;20136;-68
2023/06/02 02:43:35;;;;;;;7.38;3.42;;;;;;;;;;5012222;28;20183;-68
2023/06/02 02:46:00;;;;;;;8.90;2.95;;;;;;;;;;5004464;28;20049;-66
2023/06/02 02:48:25;;;;;;;8.05;3.20;;;;;;;;;;5018131;28;20044;-68
2023/06/02 02:50:51;;;;;;;5.47;3.28;;;;;;;;;;5024703;28;20534;-67
2023/06/02 02:53:17;;;;;;;8.65;4.30;;;;;;;;;;5013458;28;20548;-66
2023/06/02 02:55:44;;;;;;;7.28;3.35;;;;;;;;;;5026794;28;20061;-67
2023/06/02 02:58:09;;;;;;;6.03;3.13;;;;;;;;;;5009249;28;20122;-67
2023/06/02 03:00:35;;;;;;;6.57;3.75;;;;;;;;;;5013718;28;20048;-68
2023/06/02 03:03:01;;;;;;;7.63;3.10;;;;;;;;;;5007388;28;20053;-67
2023/06/02 03:05:27;;;;;;;13.60;3.28;;;;;;;;;;5027088;28;20040;-67
2023/06/02 03:07:52;;;;;;;7.38;2.85;;;;;;;;;;5007677;28;20398;-66
2023/06/02 03:10:18;;;;;;;7.15;2.60;;;;;;;;;;5010178;28;20041;-68
2023/06/02 03:12:43;;;;;;;5.85;2.70;;;;;;;;;;5024662;28;20036;-68
2023/06/02 03:15:09;;;;;;;7.32;2.85;;;;;;;;;;5010937;28;20050;-66
2023/06/02 03:17:37;;;;;;;5.70;2.78;;;;;;;;;;5016108;28;20051;-67
2023/06/02 03:20:07;;;;;;;8.27;2.58;;;;;;;;;;5019004;28;20033;-68
2023/06/02 03:22:33;;;;;;;8.27;2.85;;;;;;;;;;5023361;28;20489;-66
2023/06/02 03:24:58;;;;;;;7.70;2.60;;;;;;;;;;5024167;28;20132;-67
2023/06/02 03:27:24;;;;;;;9.25;2.47;;;;;;;;;;5017844;28;20119;-68
2023/06/02 03:29:49;;;;;;;6.97;2.35;;;;;;;;;;5021583;28;20114;-68
2023/06/02 03:32:15;;;;;;;7.85;2.53;;;;;;;;;;5004557;28;20076;-67
2023/06/02 03:34:40;;;;;;;8.25;2.38;;;;;;;;;;5002612;28;20068;-69
2023/06/02 03:37:06;;;;;;;8.15;2.50;;;;;;;;;;5022531;28;20768;-66
2023/06/02 03:39:32;;;;;;;6.00;2.10;;;;;;;;;;5021499;28;20595;-66
2023/06/02 03:41:57;;;;;;;4.82;2.25;;;;;;;;;;5018803;28;20072;-66
2023/06/02 03:44:22;;;;;;;9.63;2.78;;;;;;;;;;5028410;28;20032;-68
2023/06/02 03:46:48;;;;;;;5.50;2.22;;;;;;;;;;5028028;28;20055;-66
2023/06/02 03:49:13;;;;;;;9.25;2.40;;;;;;;;;;5017370;28;20040;-66
2023/06/02 03:51:42;;;;;;;5.60;2.25;;;;;;;;;;5027163;28;20424;-65
2023/06/02 03:54:07;;;;;;;5.90;2.13;;;;;;;;;;5008073;28;20124;-65
2023/06/02 03:56:33;;;;;;;8.85;2.35;;;;;;;;;;4997909;28;20125;-69
2023/06/02 03:58:58;;;;;;;7.63;2.72;;;;;;;;;;5020460;28;20479;-67
2023/06/02 04:01:23;;;;;;;6.10;2.45;;;;;;;;;;5037406;28;20106;-68
2023/06/02 04:03:50;;;;;;;6.60;2.20;;;;;;;;;;5009596;28;20037;-68
2023/06/02 04:06:15;;;;;;;6.63;2.63;;;;;;;;;;5027818;28;20513;-67
2023/06/02 04:08:41;;;;;;;5.82;2.60;;;;;;;;;;5027134;28;20076;-68
2023/06/02 04:11:06;;;;;;;7.72;2.15;;;;;;;;;;5014874;28;20058;-68
2023/06/02 04:13:31;;;;;;;7.55;2.33;;;;;;;;;;5008418;28;20049;-68
2023/06/02 04:15:58;;;;;;;5.88;2.20;;;;;;;;;;5014062;28;20073;-68
2023/06/02 04:18:24;;;;;;;8.82;2.70;;;;;;;;;;4999780;28;20814;-68
2023/06/02 04:20:49;;;;;;;6.30;2.00;;;;;;;;;;5026491;28;20079;-67
2023/06/02 04:23:14;;;;;;;6.20;2.28;;;;;;;;;;5021204;28;20064;-68
2023/06/02 04:25:40;;;;;;;5.72;2.55;;;;;;;;;;5001593;28;20553;-66
2023/06/02 04:28:07;;;;;;;11.30;2.60;;;;;;;;;;5021855;28;20048;-67
2023/06/02 04:30:33;;;;;;;8.63;2.30;;;;;;;;;;5024678;28;20040;-67
2023/06/02 04:32:58;;;;;;;9.48;2.83;;;;;;;;;;5020401;28;20048;-69
2023/06/02 04:35:23;;;;;;;7.03;2.35;;;;;;;;;;5026305;28;20218;-70
2023/06/02 04:37:49;;;;;;;8.02;2.20;;;;;;;;;;4998641;28;20091;-69
2023/06/02 04:40:15;;;;;;;7.18;2.60;;;;;;;;;;5007327;28;20041;-69
2023/06/02 04:42:40;;;;;;;13.52;3.17;;;;;;;;;;5008298;28;20045;-69
2023/06/02 04:45:11;;;;;;;10.45;2.20;;;;;;;;;;5005662;28;20551;-69
2023/06/02 04:47:38;;;;;;;10.50;3.17;;;;;;;;;;4999824;28;20045;-69
2023/06/02 04:50:06;;;;;;;7.22;2.20;;;;;;;;;;5026303;28;20033;-72
2023/06/02 04:52:31;;;;;;;5.82;2.38;;;;;;;;;;5005205;28;20049;-71
2023/06/02 04:54:56;;;;;;;9.55;3.20;;;;;;;;;;5019210;28;20036;-69
2023/06/02 04:57:22;;;;;;;11.50;2.72;;;;;;;;;;5032804;28;20041;-70
2023/06/02 04:59:47;;;;;;;8.65;2.38;;;;;;;;;;5014230;28;20047;-70
2023/06/02 05:02:13;;;;;;;7.88;2.00;;;;;;;;;;5002246;28;20049;-66
2023/06/02 05:04:38;;;;;;;8.23;2.42;;;;;;;;;;5001837;28;20045;-68
2023/06/02 05:07:06;;;;;;;7.00;2.58;;;;;;;;;;4998725;28;20041;-68
2023/06/02 05:09:32;;;;;;;6.10;1.80;;;;;;;;;;5023196;28;20132;-70
2023/06/02 05:11:59;;;;;;;5.70;2.60;;;;;;;;;;5010369;28;20162;-69
2023/06/02 05:14:24;;;;;;;5.13;2.20;;;;;;;;;;5008685;28;20054;-71
2023/06/02 05:16:50;;;;;;;5.53;2.05;;;;;;;;;;4990316;28;20549;-64
2023/06/02 05:19:15;;;;;;;7.38;2.38;;;;;;;;;;5013246;28;20100;-69
2023/06/02 05:21:41;;;;;;;6.55;2.33;;;;;;;;;;5019555;28;20033;-65
2023/06/02 05:24:06;;;;;;;8.18;2.55;;;;;;;;;;5024630;28;20059;-65
2023/06/02 05:26:31;;;;;;;10.02;2.20;;;;;;;;;;5013057;28;20448;-66
2023/06/02 05:28:57;;;;;;;8.23;3.42;;;;;;;;;;5026721;28;20060;-67
2023/06/02 05:31:23;;;;;;;8.70;2.50;;;;;;;;;;5017802;28;20045;-67
2023/06/02 05:33:48;;;;;;;8.02;4.45;;;;;;;;;;4994513;28;20042;-70
2023/06/02 05:36:14;;;;;;;5.78;2.10;;;;;;;;;;5006984;28;20045;-69
2023/06/02 05:38:43;;;;;;;4.18;2.17;;;;;;;;;;5021290;28;20045;-69
2023/06/02 05:41:09;;;;;;;11.02;2.90;;;;;;;;;;5006408;28;20048;-69
2023/06/02 05:43:35;;;;;;;9.23;2.67;;;;;;;;;;5018810;28;20068;-69
2023/06/02 05:46:00;;;;;;;5.53;2.40;;;;;;;;;;5011386;28;20057;-69
2023/06/02 05:48:25;;;;;;;6.40;2.58;;;;;;;;;;5015712;28;20037;-69
2023/06/02 05:50:52;;;;;;;8.15;2.58;;;;;;;;;;5029443;28;20091;-69
2023/06/02 05:53:17;;;;;;;6.30;3.08;;;;;;;;;;5016453;28;20046;-69
2023/06/02 05:55:42;;;;;;;4.15;1.98;;;;;;;;;;4995149;28;20033;-69
2023/06/02 05:58:08;;;;;;;5.05;2.63;;;;;;;;;;5019836;28;20814;-69
2023/06/02 06:00:33;;;;;;;8.70;2.50;;;;;;;;;;5024653;28;20037;-69
2023/06/02 06:02:59;;;;;;;6.20;1.90;;;;;;;;;;5021427;28;20480;-69
2023/06/02 06:05:24;;;;;;;5.30;1.83;;;;;;;;;;5014265;28;20041;-69
2023/06/02 06:07:50;;;;;;;4.72;2.17;;;;;;;;;;5009043;28;20405;-69
2023/06/02 06:10:15;;;;;;;3.97;2.05;;;;;;;;;;5013450;28;20041;-69
2023/06/02 06:12:40;;;;;;;2.80;1.27;;;;;;;;;;5027643;28;20132;-69
2023/06/02 06:15:06;;;;;;;6.43;1.92;;;;;;;;;;5011551;28;20041;-69
2023/06/02 06:17:32;;;;;;;2.30;1.73;;;;;;;;;;5015600;28;20106;-69
2023/06/02 06:19:57;;;;;;;8.55;2.55;;;;;;;;;;5023932;28;20049;-69
2023/06/02 06:22:22;;;;;;;4.35;1.75;;;;;;;;;;5023656;28;20433;-69
2023/06/02 06:24:48;;;;;;;8.23;2.55;;;;;;;;;;5019182;28;20034;-69
2023/06/02 06:27:13;;;;;;;9.93;2.47;;;;;;;;;;5011806;28;20124;-69
2023/06/02 06:29:39;;;;;;;7.93;2.63;;;;;;;;;;5011812;28;20718;-69
2023/06/02 06:32:07;;;;;;;5.18;2.55;;;;;;;;;;5024138;28;20044;-69
2023/06/02 06:34:33;;;;;;;6.40;2.65;;;;;;;;;;5027860;28;20753;-69
2023/06/02 06:36:59;;;;;;;6.15;2.30;;;;;;;;;;5012958;28;20211;-69
2023/06/02 06:39:24;;;;;;;6.43;2.53;;;;;;;;;;5009050;28;20179;-69
2023/06/02 06:41:50;;;;;;;7.35;3.15;;;;;;;;;;5004276;28;20136;-69
2023/06/02 06:44:15;;;;;;;7.68;2.67;;;;;;;;;;4995319;28;20040;-69
2023/06/02 06:46:40;;;;;;;5.93;1.80;;;;;;;;;;5026397;28;20077;-68
2023/06/02 06:49:06;;;;;;;4.38;2.45;;;;;;;;;;5011723;28;20041;-69
2023/06/02 06:51:31;;;;;;;1.88;1.30;;;;;;;;;;4994384;28;20052;-69
2023/06/02 06:53:57;;;;;;;6.05;2.58;;;;;;;;;;5004518;28;20045;-69
2023/06/02 06:56:22;;;;;;;1.95;1.38;;;;;;;;;;5007338;28;20539;-69
2023/06/02 06:58:47;;;;;;;2.10;1.42;;;;;;;;;;5008755;28;20041;-69
2023/06/02 07:01:13;;;;;;;4.60;2.30;;;;;;;;;;5024986;28;20053;-69
2023/06/02 07:03:39;;;;;;;8.77;2.90;;;;;;;;;;5022417;28;20064;-69
2023/06/02 07:06:04;;;;;;;2.33;1.25;;;;;;;;;;5013419;28;20560;-70
2023/06/02 07:08:30;;;;;;;4.50;2.60;;;;;;;;;;5023806;28;20045;-69
2023/06/02 07:10:56;;;;;;;3.67;2.15;;;;;;;;;;5015185;28;20056;-69
2023/06/02 07:13:21;;;;;;;6.30;2.35;;;;;;;;;;5003253;28;20611;-69
2023/06/02 07:15:48;;;;;;;5.13;2.22;;;;;;;;;;5003472;28;20048;-69
2023/06/02 07:18:13;;;;;;;5.75;2.58;;;;;;;;;;5010695;28;20037;-69
2023/06/02 07:20:39;;;;;;;4.32;2.28;;;;;;;;;;5000184;28;20099;-69
2023/06/02 07:23:04;;;;;;;6.68;2.30;;;;;;;;;;5018077;28;20067;-69
2023/06/02 07:25:30;;;;;;;4.82;2.35;;;;;;;;;;5023739;28;20037;-69
2023/06/02 07:27:55;;;;;;;6.72;2.88;;;;;;;;;;5013041;28;20041;-69
2023/06/02 07:30:20;;;;;;;7.65;2.35;;;;;;;;;;5009331;28;20851;-69
2023/06/02 07:32:46;;;;;;;4.13;2.30;;;;;;;;;;5023031;28;20048;-69
2023/06/02 07:35:11;;;;;;;6.53;2.78;;;;;;;;;;5010269;28;20063;-68
2023/06/02 07:37:37;;;;;;;5.93;2.47;;;;;;;;;;5002954;28;20092;-69
2023/06/02 07:40:03;;;;;;;5.07;2.20;;;;;;;;;;5016436;28;20033;-69
2023/06/02 07:42:28;;;;;;;5.18;2.40;;;;;;;;;;5016215;28;20106;-69
2023/06/02 07:44:54;;;;;;;4.88;2.15;;;;;;;;;;5012321;28;20051;-69
2023/06/02 07:47:21;;;;;;;6.00;2.95;;;;;;;;;;5018220;28;20045;-69
2023/06/02 07:49:47;;;;;;;6.25;3.03;;;;;;;;;;4991974;28;20091;-69
2023/06/02 07:52:12;;;;;;;7.20;3.03;;;;;;;;;;5004195;28;20037;-69
2023/06/02 07:54:37;;;;;;;10.63;3.70;;;;;;;;;;5004406;28;20407;-68
2023/06/02 07:57:03;;;;;;;5.45;2.85;;;;;;;;;;5003862;28;20041;-68
2023/06/02 07:59:28;;;;;;;6.20;2.78;;;;;;;;;;5003496;28;20076;-69
2023/06/02 08:01:54;;;;;;;6.57;2.78;;;;;;;;;;5003727;28;20037;-68
2023/06/02 08:04:25;;;;;;;7.57;2.38;;;;;;;;;;4995468;28;20068;-69
2023/06/02 08:06:51;;;;;;;7.95;3.33;;;;;;;;;;5000183;28;20038;-69
2023/06/02 08:09:16;;;;;;;10.50;3.25;;;;;;;;;;4992050;28;20713;-69
2023/06/02 08:11:41;;;;;;;9.30;2.97;;;;;;;;;;5002176;28;20425;-69
2023/06/02 08:14:07;;;;;;;3.55;1.50;;;;;;;;;;5016107;28;20045;-69
2023/06/02 08:16:32;;;;;;;6.13;2.83;;;;;;;;;;5010969;28;20540;-69
2023/06/02 08:18:57;;;;;;;7.22;2.70;;;;;;;;;;5022077;28;20560;-68
2023/06/02 08:21:23;;;;;;;8.02;2.42;;;;;;;;;;5007940;28;20037;-68
2023/06/02 08:23:48;;;;;;;5.95;2.97;;;;;;;;;;4995152;28;20034;-69
2023/06/02 08:26:15;;;;;;;4.57;2.63;;;;;;;;;;5022725;28;20120;-68
2023/06/02 08:28:41;;;;;;;11.48;3.13;;;;;;;;;;5016390;28;20644;-68
2023/06/02 08:31:07;;;;;;;6.40;2.67;;;;;;;;;;5007840;28;20029;-68
2023/06/02 08:33:33;;;;;;;7.13;2.55;;;;;;;;;;5013658;28;20053;-68
2023/06/02 08:36:00;;;;;;;8.07;3.22;;;;;;;;;;5005814;28;20049;-69
2023/06/02 08:38:25;;;;;;;8.50;3.10;;;;;;;;;;5010011;28;20072;-69
2023/06/02 08:40:51;;;;;;;3.35;2.40;;;;;;;;;;5017023;28;20143;-68
2023/06/02 08:43:17;;;;;;;7.75;2.83;;;;;;;;;;5014979;28;20075;-69
2023/06/02 08:45:44;;;;;;;11.07;3.28;;;;;;;;;;5004017;28;20046;-69
2023/06/02 08:48:15;;;;;;;7.53;2.30;;;;;;;;;;5015513;28;20038;-69
2023/06/02 08:50:44;;;;;;;6.53;2.30;;;;;;;;;;5000883;28;20045;-68
2023/06/02 08:53:13;;;;;;;4.15;2.50;;;;;;;;;;5014580;28;20041;-69
2023/06/02 08:55:41;;;;;;;8.38;2.95;;;;;;;;;;5011622;28;20041;-68
2023/06/02 08:58:08;;;;;;;6.88;3.03;;;;;;;;;;4978916;28;20678;-69
2023/06/02 09:00:35;;;;;;;5.40;2.70;;;;;;;;;;5025475;28;20137;-69
2023/06/02 09:03:00;;;;;;;4.90;2.58;;;;;;;;;;5015734;28;20040;-69
2023/06/02 09:05:27;;;;;;;6.72;3.38;;;;;;;;;;5014861;28;20551;-69
2023/06/02 09:08:11;;;;;;;7.38;2.70;;;;;;;;;;5012433;28;20067;-69
2023/06/02 09:10:40;;;;;;;10.35;2.90;;;;;;;;;;4996835;28;20033;-69
2023/06/02 09:13:09;;;;;;;8.88;3.47;;;;;;;;;;5025968;28;20503;-69
2023/06/02 09:15:53;;;;;;;7.32;3.42;;;;;;;;;;5010640;28;20041;-69
2023/06/02 09:18:19;;;;;;;6.35;3.00;;;;;;;;;;4997815;28;20033;-69
2023/06/02 09:20:47;;;;;;;6.70;3.17;;;;;;;;;;5006046;28;20033;-69
2023/06/02 09:23:13;;;;;;;6.70;3.10;;;;;;;;;;5002847;28;20037;-69
2023/06/02 09:25:40;;;;;;;7.85;3.10;;;;;;;;;;5012065;28;20155;-69
2023/06/02 09:28:07;;;;;;;8.77;2.88;;;;;;;;;;5016386;28;20041;-68
2023/06/02 09:30:33;;;;;;;8.80;3.25;;;;;;;;;;5012584;28;20414;-69
2023/06/02 09:33:14;;;;;;;7.85;2.78;;;;;;;;;;5025083;28;20032;-68
2023/06/02 09:35:44;;;;;;;6.60;3.10;;;;;;;;;;5001605;28;20106;-69
2023/06/02 09:38:16;;;;;;;7.22;2.58;;;;;;;;;;5007775;28;20140;-69
2023/06/02 09:40:42;;;;;;;6.15;2.90;;;;;;;;;;5014717;28;20437;-69
2023/06/02 09:43:10;;;;;;;7.05;2.80;;;;;;;;;;5017196;28;20128;-68
2023/06/02 09:45:47;;;;;;;8.75;2.97;;;;;;;;;;5017382;28;20063;-69
2023/06/02 09:48:27;;;;;;;7.18;2.97;;;;;;;;;;4995994;28;20080;-69
2023/06/02 09:50:53;;;;;;;5.80;2.92;;;;;;;;;;4997351;28;20073;-69
2023/06/02 09:53:19;;;;;;;8.75;3.10;;;;;;;;;;5010390;28;20052;-68
2023/06/02 09:55:47;;;;;;;5.90;2.80;;;;;;;;;;5014699;28;20067;-68
2023/06/02 09:58:12;;;;;;;7.75;3.10;;;;;;;;;;5025128;28;20565;-67
2023/06/02 10:00:39;;;;;;;7.38;2.80;;;;;;;;;;5014716;28;20055;-70
2023/06/02 10:03:06;;;;;;;7.38;2.85;;;;;;;;;;5009341;28;20057;-69
2023/06/02 10:05:32;;;;;;;7.03;3.10;;;;;;;;;;4992410;28;20061;-68
2023/06/02 10:08:18;;;;;;;6.60;2.25;;;;;;;;;;5011555;28;20076;-70
2023/06/02 10:10:53;;;;;;;7.80;2.67;;;;;;;;;;5015875;22;20036;-68
2023/06/02 10:13:31;;;;;;;7.25;2.53;;;;;;;;;;5025055;28;20044;-68
2023/06/02 10:16:17;;;;;;;8.30;2.50;;;;;;;;;;4995299;28;20046;-68
2023/06/02 10:18:48;;;;;;;8.00;2.83;;;;;;;;;;5035310;28;20039;-68
2023/06/02 10:21:31;;;;;;;7.25;2.67;;;;;;;;;;5007198;28;20087;-68
2023/06/02 10:24:12;;;;;;;10.40;2.78;;;;;;;;;;5010174;28;20049;-68
2023/06/02 10:26:38;;;;;;;6.07;1.27;;;;;;;;;;4977136;28;20066;-68
2023/06/02 10:29:05;;;;;;;6.10;2.42;;;;;;;;;;5013801;28;20095;-69
2023/06/02 10:31:34;;;;;;;8.52;2.70;;;;;;;;;;5023037;28;20330;-68
2023/06/02 10:34:01;;;;;;;6.40;3.33;;;;;;;;;;5010681;28;20145;-67
2023/06/02 10:37:01;;;;;;;6.47;2.97;;;;;;;;;;5021344;28;20127;-67
2023/06/02 10:39:41;;;;;;;5.85;1.48;;;;;;;;;;5011837;28;20083;-67
2023/06/02 10:42:14;;;;;;;10.20;2.92;;;;;;;;;;5021033;28;20071;-68
2023/06/02 10:44:39;;;;;;;7.15;2.35;;;;;;;;;;5014058;28;20088;-68
2023/06/02 10:47:17;;;;;;;8.48;2.42;;;;;;;;;;5024522;28;20500;-68
2023/06/02 10:49:59;;;;;;;7.65;2.58;;;;;;;;;;5012760;28;20033;-68
2023/06/02 10:52:32;;;;;;;7.30;2.33;;;;;;;;;;5007136;28;20148;-68
2023/06/02 10:55:07;;;;;;;5.88;3.05;;;;;;;;;;4995849;28;20041;-68
2023/06/02 10:57:53;;;;;;;8.77;2.38;;;;;;;;;;5016872;28;20052;-68
2023/06/02 11:00:39;;;;;;;7.32;2.35;;;;;;;;;;5004966;28;20200;-68
2023/06/02 11:03:22;;;;;;;6.68;2.90;;;;;;;;;;4979510;28;20065;-68
2023/06/02 11:05:54;;;;;;;6.45;2.25;;;;;;;;;;5010625;28;20099;-67
2023/06/02 11:08:21;;;;;;;6.13;2.22;;;;;;;;;;5014218;28;20049;-68
2023/06/02 11:10:47;;;;;;;5.20;2.40;;;;;;;;;;5012236;28;20132;-68
2023/06/02 11:13:20;;;;;;;6.38;2.38;;;;;;;;;;4978057;28;20029;-67
2023/06/02 11:15:58;;;;;;;10.63;2.97;;;;;;;;;;4985517;28;20479;-67
2023/06/02 11:18:40;;;;;;;8.35;2.70;;;;;;;;;;5013116;28;20405;-67
2023/06/02 11:21:20;;;;;;;5.57;2.53;;;;;;;;;;5007600;28;20434;-67
2023/06/02 11:23:45;;;;;;;5.57;2.00;;;;;;;;;;5003088;28;20750;-68
2023/06/02 11:26:15;;;;;;;7.85;2.25;;;;;;;;;;5007695;28;20041;-68
2023/06/02 11:28:41;;;;;;;6.40;1.92;;;;;;;;;;5010481;28;20053;-67
2023/06/02 11:31:09;;;;;;;8.25;2.22;;;;;;;;;;5025103;28;20039;-67
2023/06/02 11:33:37;;;;;;;4.65;1.75;;;;;;;;;;4990909;28;20041;-68
2023/06/02 11:36:08;;;;;;;4.90;2.10;;;;;;;;;;5011779;28;20075;-67
2023/06/02 11:38:33;;;;;;;;;;;;;;;;;;4985831;28;20161;-67
2023/06/02 11:41:12;;;;;;;7.75;2.40;;;;;;;;;;5013911;28;20269;-67
2023/06/02 11:43:39;;;;;;;8.93;2.42;;;;;;;;;;5004541;28;20041;-68
2023/06/02 11:46:08;;;;;;;4.93;1.73;;;;;;;;;;5013289;28;20052;-67
2023/06/02 11:48:38;;;;;;;7.25;2.05;;;;;;;;;;5005020;28;20111;-67
2023/06/02 11:51:04;;;;;;;5.97;1.92;;;;;;;;;;4979361;28;20092;-67
2023/06/02 11:53:29;;;;;;;5.35;1.88;;;;;;;;;;5017515;28;20401;-67
2023/06/02 11:55:55;;;;;;;5.97;1.90;;;;;;;;;;5024621;28;20037;-67
2023/06/02 11:58:27;;;;;;;7.93;1.85;;;;;;;;;;5015059;28;20074;-67
2023/06/02 12:01:14;;;;;;;6.93;1.95;;;;;;;;;;5009186;28;20053;-67
2023/06/02 12:03:40;;;;;;;4.35;2.00;;;;;;;;;;5012910;28;20049;-67
2023/06/02 12:06:15;;;;;;;10.93;2.58;;;;;;;;;;5024625;28;20037;-68
2023/06/02 12:08:41;;;;;;;7.13;1.90;;;;;;;;;;5014723;28;20572;-67
2023/06/02 12:11:17;;;;;;;6.75;2.05;;;;;;;;;;5022803;28;20072;-67
2023/06/02 12:14:00;;;;;;;6.03;1.75;;;;;;;;;;5014728;28;20047;-67
2023/06/02 12:16:26;;;;;;;5.78;1.80;;;;;;;;;;5024127;28;20119;-68
2023/06/02 12:18:53;;;;;;;7.15;2.42;;;;;;;;;;5024528;28;20037;-68
2023/06/02 12:21:28;;;;;;;8.15;1.73;;;;;;;;;;5006991;28;20520;-68
2023/06/02 12:23:55;;;;;;;6.07;1.88;;;;;;;;;;5021802;28;20445;-68
2023/06/02 12:26:21;;;;;;;6.70;2.00;;;;;;;;;;5006733;28;20033;-68
2023/06/02 12:28:48;;;;;;;3.72;1.67;;;;;;;;;;5013926;28;20130;-68
2023/06/02 12:31:16;;;;;;;3.42;1.45;;;;;;;;;;5004224;28;20172;-68
2023/06/02 12:33:42;;;;;;;4.70;2.03;;;;;;;;;;4990435;28;20045;-67
2023/06/02 12:36:10;;;;;;;6.40;1.90;;;;;;;;;;5024130;28;20029;-68
2023/06/02 12:38:35;;;;;;;5.43;1.80;;;;;;;;;;5014381;28;20041;-68
2023/06/02 12:41:01;;;;;;;5.07;2.30;;;;;;;;;;5021282;28;20037;-68
2023/06/02 12:43:27;;;;;;;6.32;1.95;;;;;;;;;;5013532;28;20037;-68
2023/06/02 12:45:52;;;;;;;4.25;1.70;;;;;;;;;;4995428;28;20039;-68
2023/06/02 12:48:17;;;;;;;6.07;2.50;;;;;;;;;;4996174;28;20049;-68
2023/06/02 12:50:43;;;;;;;8.00;2.30;;;;;;;;;;4976301;28;20041;-68
2023/06/02 12:53:08;;;;;;;4.50;2.25;;;;;;;;;;4982907;28;20423;-67
2023/06/02 12:55:34;;;;;;;8.38;2.70;;;;;;;;;;4950881;28;20046;-67
2023/06/02 12:57:59;;;;;;;5.28;2.10;;;;;;;;;;4966434;28;20046;-68
2023/06/02 13:00:25;;;;;;;4.93;2.75;;;;;;;;;;4974546;28;20045;-68
2023/06/02 13:02:50;;;;;;;7.25;2.42;;;;;;;;;;4957642;28;20142;-68
2023/06/02 13:05:16;;;;;;;7.53;2.30;;;;;;;;;;5021429;28;20041;-68
2023/06/02 13:07:44;;;;;;;6.22;2.33;;;;;;;;;;5006551;28;20069;-68
2023/06/02 13:10:11;;;;;;;4.10;1.90;;;;;;;;;;5000100;28;20069;-68
2023/06/02 13:12:38;;;;;;;3.90;1.90;;;;;;;;;;5007527;28;20088;-68
2023/06/02 13:15:05;;;;;;;3.92;2.05;;;;;;;;;;5007449;28;20104;-68
2023/06/02 13:17:33;;;;;;;2.83;1.23;;;;;;;;;;5020298;28;20049;-68
2023/06/02 13:20:00;;;;;;;5.00;1.40;;;;;;;;;;5011934;28;20698;-68
2023/06/02 13:22:28;;;;;;;4.82;1.90;;;;;;;;;;5021387;28;20041;-69
2023/06/02 13:24:53;;;;;;;5.47;1.50;;;;;;;;;;5019162;28;20037;-67
2023/06/02 13:27:19;;;;;;;4.90;1.48;;;;;;;;;;5022332;28;21107;-68
2023/06/02 13:29:45;;;;;;;5.63;1.50;;;;;;;;;;5008514;28;20056;-67
2023/06/02 13:32:10;;;;;;;6.25;1.80;;;;;;;;;;5011604;28;20314;-68
2023/06/02 13:34:36;;;;;;;4.05;1.50;;;;;;;;;;4987639;28;20168;-68
2023/06/02 13:37:01;;;;;;;6.30;1.58;;;;;;;;;;5016794;28;20044;-67
2023/06/02 13:39:27;;;;;;;5.35;1.50;;;;;;;;;;5021811;28;20472;-68
2023/06/02 13:41:52;;;;;;;2.92;1.83;;;;;;;;;;5020766;28;20075;-68
2023/06/02 13:44:19;;;;;;;2.70;1.20;;;;;;;;;;5009638;28;20044;-67
2023/06/02 13:46:46;;;;;;;4.25;2.10;;;;;;;;;;5023084;28;20798;-68
2023/06/02 13:49:16;;;;;;;3.42;1.40;;;;;;;;;;5000663;28;20135;-68
2023/06/02 13:51:51;;;;;;;5.87;1.47;;;;;;;;;;5024777;28;20065;-68
2023/06/02 13:54:17;;;;;;;6.53;1.50;;;;;;;;;;5014945;28;20123;-68
2023/06/02 13:56:43;;;;;;;5.82;1.30;;;;;;;;;;5015227;28;20156;-67
2023/06/02 13:59:09;;;;;;;2.72;1.25;;;;;;;;;;5014607;28;20603;-68
2023/06/02 14:01:35;;;;;;;6.72;1.45;;;;;;;;;;4995291;28;20201;-69
2023/06/02 14:04:00;;;;;;;3.53;1.52;;;;;;;;;;5002973;28;20140;-68
2023/06/02 14:06:26;;;;;;;4.55;1.50;;;;;;;;;;5000299;28;20045;-67
2023/06/02 14:08:52;;;;;;;3.40;1.00;;;;;;;;;;5000743;28;20990;-67
2023/06/02 14:11:18;;;;;;;2.72;1.30;;;;;;;;;;5024445;28;20048;-68
2023/06/02 14:13:43;;;;;;;2.20;1.25;;;;;;;;;;5027151;28;20052;-68
2023/06/02 14:16:09;;;;;;;3.10;1.15;;;;;;;;;;5012545;28;20061;-67
2023/06/02 14:18:34;;;;;;;8.20;1.10;;;;;;;;;;5013455;28;20089;-67
2023/06/02 14:21:00;;;;;;;4.72;1.10;;;;;;;;;;5024223;28;20033;-67
2023/06/02 14:23:25;;;;;;;3.13;1.38;;;;;;;;;;4996135;28;20528;-68
2023/06/02 14:25:51;;;;;;;2.97;1.40;;;;;;;;;;4984844;28;20717;-67
2023/06/02 14:28:16;;;;;;;3.72;1.08;;;;;;;;;;5016837;28;20156;-67
2023/06/02 14:30:42;;;;;;;3.45;1.10;;;;;;;;;;5004066;28;20041;-67
2023/06/02 14:33:07;;;;;;;3.75;1.13;;;;;;;;;;5012127;28;20501;-67
2023/06/02 14:35:33;;;;;;;3.45;1.38;;;;;;;;;;5010527;28;20041;-68
2023/06/02 14:37:58;;;;;;;3.42;1.50;;;;;;;;;;5009198;28;20878;-67
2023/06/02 14:40:23;;;;;;;3.38;1.45;;;;;;;;;;5027536;28;20066;-67
2023/06/02 14:42:49;;;;;;;3.53;1.30;;;;;;;;;;5015070;28;20041;-68
2023/06/02 14:45:15;;;;;;;3.72;1.48;;;;;;;;;;5003510;28;20906;-68